Aburatsu, Japan

6:52 PM JST on August 24, 2019 (GMT +0900)
Kuninomatsubara | | Change Station

Elev 49 ft 31.42 °N, 131.03 °E | Updated 12 seconds ago

Mostly Cloudy
Mostly Cloudy
79.9 °F
Feels Like 87 °F
N
0.9
Wind Variable Wind from NNW
Gusts 1.1 mph

Today
High -- | Low -- °F
--% Chance of Precip.
Yesterday
High -- | Low -- °F
Precip. -- in
Pressure 29.89 in
Visibility -9999.0 miles
Clouds Few 1500 ft
Overcast 2000 ft
Few 2000 ft
Heat Index 87 °F
Dew Point 80 °F
Humidity 99%
Rainfall 0.35 in
Snow Depth Not available.
5:44 AM 6:48 PM
Last Quarter, 42% visible
SPECI RJFY 240940Z 25011KT 3200 TSRA BR FEW015 OVC020 FEW020CB 26/24 Q1012 RMK 2CU015 8CU020 2CB020 A2989 MOD TS 5KM S MOV E
Pressure 29.89 in
Visibility -9999.0 miles
Clouds Few 1500 ft
Overcast 2000 ft
Few 2000 ft
Heat Index 87 °F
Dew Point 80 °F
Humidity 99%
Rainfall 0.35 in
Snow Depth Not available.
5:44 AM 6:48 PM
Last Quarter, 42% visible
SPECI RJFY 240940Z 25011KT 3200 TSRA BR FEW015 OVC020 FEW020CB 26/24 Q1012 RMK 2CU015 8CU020 2CB020 A2989 MOD TS 5KM S MOV E

Get Severe Weather Alerts

Thanks for signing up!

Be on the lookout for a verification email in your inbox.

You'll start receiving the daily forecast at 6 AM.

×

10-Day Weather Forecast

No radar image for this location.
×

Almanac

Astronomy

Aug. 24, 2019 Rise Set
Actual Time
Civil Twilight
Nautical Twilight
Astronomical Twilight
Moon
Length of Visible Light
Length of Day
Tomorrow will be .
, % of the Moon is Illuminated

Today's Extremes

Country Highs Country Lows

Community

WunderPhotos

Category 6

Welcome to Category 6. This is the collective home for Weather Underground's featured writeups by Dr. Jeff Masters (right), Bob Henson (left), Chris Burt, and other regular contributors.

Nearby

Air Quality

  Air Quality AQ Index Pollutant
Not available.

Snow Depth

Station Depth Elevation

Earthquake Activity

City Distance Mag. Time & Date
Minimum magnitude displayed is 2.5.

Coastal Water Temperatures

Place Temperature

Stations

Nearby Weather Stations

Station Location Temp. Windchill Dew Point Humidity Wind Precip. Elev Updated Type